Time;durP1;ratioP1;P1;durP2;ratioP2;P2;SDS_P1;SDS_P2;PMS_P1;PMS_P2;Temp;Humidity;BMP_temperature;BMP_pressure;BME280_temperature;BME280_humidity;BME280_pressure;Samples;Min_cycle;Max_cycle;Signal;HPM_P1;HPM_P2
2022/06/16 00:02:02;;;;;;;12.93;8.90;;;23.30;34.40;;;;;;5032769;28;20180;-72
2022/06/16 00:04:28;;;;;;;16.83;9.93;;;23.20;34.40;;;;;;5032860;28;20231;-72
2022/06/16 00:06:55;;;;;;;16.70;9.20;;;23.00;33.40;;;;;;5033722;28;20466;-72
2022/06/16 00:09:22;;;;;;;15.70;8.90;;;23.10;33.60;;;;;;5025047;28;20435;-72
2022/06/16 00:11:48;;;;;;;15.03;9.70;;;23.00;33.80;;;;;;5033189;28;20481;-72
2022/06/16 00:14:13;;;;;;;12.70;7.97;;;23.00;33.20;;;;;;5024362;28;20451;-72
2022/06/16 00:16:39;;;;;;;13.33;8.67;;;23.10;32.30;;;;;;5031083;28;20906;-72
2022/06/16 00:19:05;;;;;;;14.47;8.77;;;23.20;32.80;;;;;;5018951;28;20676;-72
2022/06/16 00:21:30;;;;;;;13.90;9.00;;;23.50;30.50;;;;;;5025767;28;20176;-71
2022/06/16 00:23:56;;;;;;;16.43;8.50;;;23.50;30.90;;;;;;5032879;28;20679;-72
2022/06/16 00:26:25;;;;;;;12.10;8.40;;;23.40;32.50;;;;;;5032723;28;20214;-72
2022/06/16 00:28:52;;;;;;;11.53;8.50;;;23.40;33.40;;;;;;5036889;28;20196;-72
2022/06/16 00:31:21;;;;;;;13.43;8.93;;;23.00;32.80;;;;;;5024658;28;20489;-72
2022/06/16 00:33:48;;;;;;;12.67;8.80;;;23.00;32.50;;;;;;5032535;28;20434;-73
2022/06/16 00:36:13;;;;;;;14.10;9.57;;;22.90;32.60;;;;;;5032725;28;20422;-72
2022/06/16 00:38:40;;;;;;;12.43;8.60;;;22.70;33.40;;;;;;5035701;28;20431;-71
2022/06/16 00:41:06;;;;;;;11.10;8.70;;;22.90;33.50;;;;;;5024421;28;20176;-72
2022/06/16 00:43:32;;;;;;;12.67;9.70;;;22.90;33.50;;;;;;5032350;28;20427;-72
2022/06/16 00:46:02;;;;;;;14.73;8.90;;;22.80;34.20;;;;;;5034394;28;20425;-72
2022/06/16 00:48:48;;;;;;;13.63;9.03;;;22.70;33.30;;;;;;5033414;28;21006;-72
2022/06/16 00:51:37;;;;;;;13.50;10.00;;;22.70;34.30;;;;;;5025038;28;20837;-72
2022/06/16 00:54:16;;;;;;;15.60;10.00;;;22.70;35.00;;;;;;5035932;28;20878;-72
2022/06/16 00:56:42;;;;;;;14.93;9.60;;;22.80;35.40;;;;;;5027506;28;20406;-71
2022/06/16 00:59:08;;;;;;;18.83;9.60;;;22.70;34.50;;;;;;5034182;28;20429;-71
2022/06/16 01:01:35;;;;;;;16.70;9.40;;;22.60;35.50;;;;;;5023529;28;20420;-71
2022/06/16 01:06:45;;;;;;;17.50;10.20;;;22.50;36.00;;;;;;5032463;28;20494;-72
2022/06/16 01:09:21;;;;;;;19.10;10.07;;;22.40;34.90;;;;;;5032042;28;20653;-72
2022/06/16 01:15:13;;;;;;;21.83;10.83;;;22.30;36.10;;;;;;5005699;28;20436;-72
2022/06/16 01:18:13;;;;;;;18.93;10.63;;;22.10;38.20;;;;;;4994790;28;20915;-72
2022/06/16 01:21:01;;;;;;;18.77;10.50;;;22.00;37.90;;;;;;5029130;28;20434;-72
2022/06/16 01:23:41;;;;;;;20.47;9.23;;;21.90;36.90;;;;;;5023911;28;20439;-72
2022/06/16 01:26:10;;;;;;;17.17;9.93;;;22.00;37.30;;;;;;5032035;28;20394;-72
2022/06/16 01:29:13;;;;;;;15.97;10.50;;;22.00;36.30;;;;;;5039041;28;20491;-72
2022/06/16 01:31:42;;;;;;;12.97;9.70;;;22.20;36.70;;;;;;5028255;28;20866;-72
2022/06/16 01:34:49;;;;;;;17.10;10.63;;;22.10;37.40;;;;;;5023341;28;20495;-72
2022/06/16 01:37:39;;;;;;;14.50;9.83;;;22.00;36.20;;;;;;5031257;28;20420;-72
2022/06/16 01:40:32;;;;;;;11.77;9.93;;;21.70;37.10;;;;;;5031474;28;20895;-72
2022/06/16 01:43:10;;;;;;;12.97;9.43;;;21.90;37.70;;;;;;5035131;28;20963;-72
2022/06/16 01:45:54;;;;;;;15.83;9.47;;;21.80;37.80;;;;;;5024726;28;20476;-70
2022/06/16 01:48:21;;;;;;;16.83;10.00;;;21.60;36.80;;;;;;5023104;28;20443;-71
2022/06/16 01:50:56;;;;;;;14.37;9.63;;;21.60;37.20;;;;;;5032283;28;20474;-72
2022/06/16 01:53:31;;;;;;;16.37;10.43;;;21.60;38.40;;;;;;5021027;28;20546;-72
2022/06/16 01:56:05;;;;;;;13.37;9.73;;;21.60;37.80;;;;;;5028448;28;20533;-72
2022/06/16 01:58:36;;;;;;;15.67;10.87;;;21.70;38.30;;;;;;5031442;28;20447;-72
2022/06/16 02:01:07;;;;;;;13.03;10.07;;;21.80;38.40;;;;;;5031303;28;20490;-72
2022/06/16 02:03:41;;;;;;;15.90;10.57;;;21.80;38.10;;;;;;5032820;28;20450;-72
2022/06/16 02:06:20;;;;;;;15.17;10.77;;;21.70;38.90;;;;;;5023830;28;20438;-72
2022/06/16 02:08:55;;;;;;;18.03;11.43;;;21.60;38.10;;;;;;5022898;28;20779;-72
2022/06/16 02:11:23;;;;;;;18.63;12.10;;;21.70;37.80;;;;;;5031181;28;20540;-72
2022/06/16 02:13:53;;;;;;;16.70;11.30;;;21.60;38.40;;;;;;5032574;28;20484;-72
2022/06/16 02:16:23;;;;;;;16.53;11.27;;;21.60;38.80;;;;;;5027972;28;20417;-72
2022/06/16 02:18:51;;;;;;;14.83;11.27;;;21.70;38.30;;;;;;5011659;28;20416;-72
2022/06/16 02:21:35;;;;;;;20.33;11.40;;;21.60;37.40;;;;;;5011449;28;20413;-72
2022/06/16 02:24:04;;;;;;;18.27;11.13;;;21.50;38.40;;;;;;5027224;28;20457;-72
2022/06/16 02:26:30;;;;;;;17.67;11.73;;;21.30;38.70;;;;;;5026907;28;20422;-72
2022/06/16 02:28:58;;;;;;;15.40;11.60;;;21.40;38.90;;;;;;5035320;28;20412;-71
2022/06/16 02:31:39;;;;;;;18.30;11.40;;;21.30;38.80;;;;;;5038066;28;20491;-71
2022/06/16 02:34:20;;;;;;;14.53;10.97;;;21.10;38.60;;;;;;5036478;28;20522;-72
2022/06/16 02:37:21;;;;;;;14.40;10.43;;;21.10;39.40;;;;;;5041404;28;20441;-72
2022/06/16 02:40:14;;;;;;;15.43;9.73;;;21.20;40.30;;;;;;5021850;28;20443;-72
2022/06/16 02:42:48;;;;;;;16.17;9.97;;;21.20;38.90;;;;;;5023251;28;20420;-72
2022/06/16 02:46:09;;;;;;;13.80;9.60;;;21.10;36.40;;;;;;5026325;28;20466;-71
2022/06/16 02:48:38;;;;;;;12.27;8.80;;;21.00;35.40;;;;;;4960439;28;20988;-72
2022/06/16 02:51:16;;;;;;;18.60;10.20;;;21.30;36.50;;;;;;5020426;28;20471;-72
2022/06/16 02:54:20;;;;;;;12.63;10.37;;;21.40;37.20;;;;;;5034685;28;20440;-72
2022/06/16 02:57:04;;;;;;;14.23;10.00;;;21.40;36.80;;;;;;5023144;28;20975;-72
2022/06/16 03:00:09;;;;;;;12.40;8.80;;;21.10;37.90;;;;;;5023105;28;20806;-71
2022/06/16 03:02:38;;;;;;;13.13;9.57;;;20.90;39.20;;;;;;5017729;28;20416;-72
2022/06/16 03:05:07;;;;;;;16.90;9.73;;;20.90;38.80;;;;;;5022291;28;20445;-72
2022/06/16 03:07:35;;;;;;;14.80;10.03;;;20.90;37.90;;;;;;5038355;28;20458;-72
2022/06/16 03:10:01;;;;;;;14.40;10.40;;;21.00;38.50;;;;;;5026247;28;20976;-72
2022/06/16 03:12:27;;;;;;;12.60;9.00;;;21.00;37.00;;;;;;5034181;28;20410;-72
2022/06/16 03:14:53;;;;;;;14.37;10.10;;;20.90;37.40;;;;;;5033799;28;20510;-71
2022/06/16 03:17:20;;;;;;;20.60;10.00;;;21.00;37.60;;;;;;5034255;28;20187;-71
2022/06/16 03:19:45;;;;;;;18.50;9.80;;;20.80;38.50;;;;;;5025866;28;20275;-72
2022/06/16 03:22:11;;;;;;;14.60;9.47;;;20.90;38.60;;;;;;5033959;28;20419;-71
2022/06/16 03:24:38;;;;;;;14.40;9.90;;;20.90;39.00;;;;;;5037018;28;20203;-71
2022/06/16 03:27:05;;;;;;;14.00;9.57;;;21.10;37.90;;;;;;5028376;28;20498;-72
2022/06/16 03:29:31;;;;;;;12.87;9.53;;;21.30;35.20;;;;;;5039285;28;20433;-71
2022/06/16 03:31:57;;;;;;;14.37;9.70;;;21.50;34.60;;;;;;5028930;28;20967;-70
2022/06/16 03:34:24;;;;;;;12.27;9.67;;;21.40;37.50;;;;;;5033643;28;20535;-72
2022/06/16 03:36:51;;;;;;;14.93;9.37;;;21.20;36.70;;;;;;5025669;28;20526;-71
2022/06/16 03:39:17;;;;;;;12.73;9.40;;;21.30;36.70;;;;;;5039996;28;20465;-72
2022/06/16 03:41:42;;;;;;;11.03;9.20;;;21.10;35.70;;;;;;5025471;28;20447;-71
2022/06/16 03:44:08;;;;;;;13.77;9.43;;;20.70;37.60;;;;;;5024619;28;20556;-72
2022/06/16 03:46:34;;;;;;;15.00;10.00;;;20.80;39.10;;;;;;5033498;28;20187;-71
2022/06/16 03:48:59;;;;;;;13.57;10.10;;;21.00;37.80;;;;;;5033528;28;20212;-72
2022/06/16 03:51:25;;;;;;;12.80;9.77;;;21.10;37.20;;;;;;5033468;28;20217;-71
2022/06/16 03:53:51;;;;;;;20.60;9.77;;;21.30;35.10;;;;;;5036990;28;20209;-72
2022/06/16 03:56:17;;;;;;;14.57;10.03;;;21.10;36.20;;;;;;5017126;28;20196;-71
2022/06/16 03:58:42;;;;;;;11.00;9.10;;;21.50;34.70;;;;;;5033901;28;20643;-72
2022/06/16 04:01:08;;;;;;;11.90;9.70;;;21.50;36.30;;;;;;5033503;28;20174;-71
2022/06/16 04:06:19;;;;;;;16.20;10.20;;;21.60;36.80;;;;;;5029843;28;20179;-71
2022/06/16 04:08:44;;;;;;;19.87;9.80;;;21.10;35.40;;;;;;5033486;28;20414;-71
2022/06/16 04:11:28;;;;;;;12.87;9.87;;;20.20;37.90;;;;;;5033162;28;20803;-69
2022/06/16 04:14:12;;;;;;;15.93;9.83;;;19.60;40.90;;;;;;5024587;28;20300;-71
2022/06/16 04:16:48;;;;;;;20.50;10.03;;;19.60;41.30;;;;;;5025902;28;20904;-71
2022/06/16 04:19:19;;;;;;;12.97;9.63;;;20.10;40.90;;;;;;5035266;28;20425;-72
2022/06/16 04:21:45;;;;;;;17.53;9.47;;;20.70;39.90;;;;;;5024762;28;20422;-71
2022/06/16 04:24:12;;;;;;;16.90;9.27;;;21.00;38.60;;;;;;5033359;28;20494;-72
2022/06/16 04:26:39;;;;;;;11.63;9.27;;;21.20;38.50;;;;;;5031090;28;20441;-72
2022/06/16 04:29:06;;;;;;;16.80;10.07;;;21.40;37.80;;;;;;5036870;28;20525;-71
2022/06/16 04:31:32;;;;;;;13.20;9.47;;;21.50;37.80;;;;;;5024559;28;20540;-72
2022/06/16 04:33:58;;;;;;;16.67;10.07;;;21.50;37.80;;;;;;5032849;28;20431;-72
2022/06/16 04:36:24;;;;;;;16.90;10.20;;;21.50;37.40;;;;;;5039157;28;20439;-72
2022/06/16 04:38:50;;;;;;;15.90;10.30;;;21.20;36.70;;;;;;5029132;28;20455;-72
2022/06/16 04:41:17;;;;;;;15.30;9.90;;;21.10;36.50;;;;;;5028967;28;20431;-71
2022/06/16 04:43:42;;;;;;;21.27;9.90;;;20.90;37.90;;;;;;5032797;28;20942;-72
2022/06/16 04:46:08;;;;;;;15.83;10.27;;;23.70;40.70;;;;;;5034296;28;20427;-72
2022/06/16 04:48:35;;;;;;;12.30;10.20;;;21.50;38.20;;;;;;5024103;28;20242;-72
2022/06/16 04:51:03;;;;;;;14.00;9.53;;;21.60;37.20;;;;;;5032591;28;20468;-71
2022/06/16 04:53:29;;;;;;;16.13;10.00;;;21.70;37.10;;;;;;5032555;28;20439;-72
2022/06/16 04:55:56;;;;;;;18.53;10.23;;;21.90;36.90;;;;;;5032740;28;20459;-72
2022/06/16 04:58:23;;;;;;;16.07;9.63;;;21.90;37.10;;;;;;5034554;28;20444;-72
2022/06/16 05:00:50;;;;;;;11.23;9.63;;;22.00;36.20;;;;;;5028863;28;20433;-72
2022/06/16 05:03:17;;;;;;;14.80;9.90;;;21.80;34.90;;;;;;5032498;28;20523;-71
2022/06/16 05:05:45;;;;;;;20.03;8.57;;;21.30;36.30;;;;;;5028185;28;20434;-71
2022/06/16 05:08:12;;;;;;;13.83;9.03;;;21.20;35.20;;;;;;5028727;28;20455;-72
2022/06/16 05:10:37;;;;;;;14.07;9.27;;;20.70;36.40;;;;;;5031097;28;20473;-70
2022/06/16 05:13:03;;;;;;;13.63;9.27;;;20.90;37.20;;;;;;5014772;28;20443;-71
2022/06/16 05:15:29;;;;;;;14.10;9.93;;;21.10;36.80;;;;;;5021666;28;20181;-72
2022/06/16 05:17:54;;;;;;;16.50;9.63;;;21.30;36.20;;;;;;5029546;28;20183;-71
2022/06/16 05:20:21;;;;;;;16.20;10.10;;;21.50;35.70;;;;;;5031765;28;20247;-70
2022/06/16 05:22:46;;;;;;;12.90;9.10;;;21.80;36.50;;;;;;5031665;28;20175;-71
2022/06/16 05:25:12;;;;;;;13.40;9.20;;;22.30;36.20;;;;;;5031610;28;20449;-71
2022/06/16 05:27:38;;;;;;;14.47;9.20;;;22.50;33.70;;;;;;5031909;28;20232;-70
2022/06/16 05:30:04;;;;;;;15.50;9.80;;;21.80;34.80;;;;;;5035820;28;20189;-71
2022/06/16 05:32:30;;;;;;;11.07;9.40;;;21.70;36.00;;;;;;5025601;28;20187;-71
2022/06/16 05:34:55;;;;;;;16.77;9.40;;;22.00;36.60;;;;;;5031469;28;20454;-72
2022/06/16 05:37:21;;;;;;;14.17;9.87;;;22.10;34.60;;;;;;5066522;22;20245;-73
2022/06/16 05:39:49;;;;;;;12.77;9.10;;;22.20;35.10;;;;;;5049492;28;20226;-72
2022/06/16 05:42:15;;;;;;;16.23;10.50;;;22.50;35.40;;;;;;5030333;28;20222;-72
2022/06/16 05:44:41;;;;;;;19.17;10.50;;;22.40;34.60;;;;;;5031053;28;20409;-72
2022/06/16 05:47:07;;;;;;;16.00;11.20;;;21.80;35.70;;;;;;5042324;28;20461;-74
2022/06/16 05:49:33;;;;;;;13.77;10.80;;;21.60;35.90;;;;;;5044545;28;20182;-71
2022/06/16 05:52:00;;;;;;;18.03;13.47;;;21.30;37.50;;;;;;5050670;28;20588;-72
2022/06/16 05:54:27;;;;;;;18.60;11.27;;;21.10;37.50;;;;;;5047332;28;20501;-70
2022/06/16 05:56:52;;;;;;;16.23;9.20;;;20.70;38.70;;;;;;5050891;28;20493;-71
2022/06/16 05:59:18;;;;;;;12.13;9.40;;;20.70;39.10;;;;;;5043857;28;20552;-70
2022/06/16 06:01:44;;;;;;;12.90;9.50;;;20.60;40.70;;;;;;5039085;28;20199;-70
2022/06/16 06:04:09;;;;;;;13.63;9.90;;;20.40;41.60;;;;;;5038750;28;20181;-71
2022/06/16 06:06:35;;;;;;;13.83;9.40;;;20.50;41.70;;;;;;5035820;28;20240;-73
2022/06/16 06:17:19;;;;;;;15.30;10.03;;;24.00;36.10;;;;;;5050108;28;20890;-70
2022/06/16 06:19:44;;;;;;;12.53;9.10;;;22.00;36.80;;;;;;5045157;28;20821;-72
2022/06/16 06:22:14;;;;;;;11.53;8.70;;;21.70;37.50;;;;;;5048990;28;20427;-73
2022/06/16 06:24:43;;;;;;;14.37;8.60;;;21.70;37.80;;;;;;5050693;28;20208;-72
2022/06/16 06:27:19;;;;;;;15.57;8.73;;;22.20;37.30;;;;;;5049972;28;20439;-73
2022/06/16 06:29:47;;;;;;;15.77;9.60;;;22.60;35.80;;;;;;5052557;28;20522;-72
2022/06/16 06:32:14;;;;;;;11.80;9.27;;;22.70;36.30;;;;;;5038617;28;20513;-72
2022/06/16 06:34:40;;;;;;;13.30;9.10;;;22.40;36.00;;;;;;5050601;28;20419;-72
2022/06/16 06:37:07;;;;;;;11.13;9.20;;;21.90;37.80;;;;;;5050471;28;20517;-72
2022/06/16 06:39:33;;;;;;;12.03;9.17;;;22.00;37.10;;;;;;5032007;28;20415;-72
2022/06/16 06:41:58;;;;;;;12.33;9.30;;;21.70;38.80;;;;;;5042924;28;20580;-72
2022/06/16 06:44:24;;;;;;;13.83;9.50;;;22.10;38.30;;;;;;5049584;28;20189;-72
2022/06/16 06:46:50;;;;;;;15.23;9.80;;;22.50;36.80;;;;;;5045749;28;20643;-73
2022/06/16 06:49:16;;;;;;;18.07;10.10;;;22.50;37.40;;;;;;5047057;28;20432;-73
2022/06/16 06:51:42;;;;;;;13.57;10.30;;;22.90;36.80;;;;;;5039526;28;20203;-73
2022/06/16 06:54:08;;;;;;;16.77;10.63;;;23.50;34.70;;;;;;5038908;28;20890;-73
2022/06/16 06:56:34;;;;;;;16.93;10.20;;;23.90;34.60;;;;;;5030561;28;20179;-73
2022/06/16 06:59:09;;;;;;;15.47;10.57;;;24.00;35.00;;;;;;5037814;28;20252;-73
2022/06/16 07:01:35;;;;;;;13.77;11.53;;;23.70;35.00;;;;;;5044658;28;20435;-72
2022/06/16 07:04:02;;;;;;;17.13;11.73;;;23.70;34.40;;;;;;5040170;28;20474;-72
2022/06/16 07:06:29;;;;;;;17.60;11.17;;;23.50;35.40;;;;;;5040161;28;20624;-73
2022/06/16 07:08:55;;;;;;;17.37;11.30;;;23.20;36.20;;;;;;5039729;28;20462;-72
2022/06/16 07:11:21;;;;;;;18.83;11.30;;;23.10;36.10;;;;;;5051235;28;20999;-73
2022/06/16 07:13:46;;;;;;;16.47;10.70;;;23.40;35.50;;;;;;5046264;28;20186;-72
2022/06/16 07:16:12;;;;;;;17.23;10.90;;;23.40;36.60;;;;;;5043257;28;20219;-72
2022/06/16 07:18:38;;;;;;;15.77;10.40;;;23.60;35.50;;;;;;5054523;28;20732;-70
2022/06/16 07:21:04;;;;;;;21.43;11.43;;;23.80;35.40;;;;;;5044872;28;20187;-70
2022/06/16 07:23:30;;;;;;;15.57;10.73;;;24.30;34.00;;;;;;5044165;28;20218;-71
2022/06/16 07:25:55;;;;;;;15.53;10.80;;;24.50;33.90;;;;;;5053624;28;20932;-71
2022/06/16 07:28:22;;;;;;;21.43;10.37;;;25.10;34.10;;;;;;5054472;28;20195;-71
2022/06/16 07:30:48;;;;;;;18.07;9.70;;;25.50;31.90;;;;;;5053832;28;20611;-71
2022/06/16 07:33:13;;;;;;;14.07;10.03;;;25.50;31.80;;;;;;5047116;28;20457;-71
2022/06/16 07:35:43;;;;;;;15.93;9.80;;;26.00;30.60;;;;;;5039615;28;20223;-72
2022/06/16 07:38:11;;;;;;;22.90;10.07;;;26.10;32.30;;;;;;5037168;28;20758;-71
2022/06/16 07:40:38;;;;;;;13.13;9.70;;;25.70;31.70;;;;;;5040017;28;20423;-70
2022/06/16 07:43:04;;;;;;;18.87;9.20;;;25.90;33.90;;;;;;5045117;28;20441;-72
2022/06/16 07:45:29;;;;;;;18.50;9.40;;;26.00;34.30;;;;;;5040908;28;20902;-72
2022/06/16 07:47:57;;;;;;;17.07;9.87;;;26.20;31.60;;;;;;5034158;28;20446;-70
2022/06/16 07:50:23;;;;;;;18.93;10.27;;;26.30;31.70;;;;;;5033736;28;20204;-71
2022/06/16 07:52:49;;;;;;;25.13;10.03;;;26.50;30.40;;;;;;5034438;28;20498;-71
2022/06/16 07:55:17;;;;;;;19.50;9.33;;;26.50;33.10;;;;;;5046195;28;20513;-70
2022/06/16 07:57:47;;;;;;;15.33;10.00;;;26.50;31.90;;;;;;5053796;28;20187;-71
2022/06/16 08:00:17;;;;;;;16.10;10.23;;;26.50;31.20;;;;;;5046450;28;20426;-70
2022/06/16 08:02:43;;;;;;;17.33;10.80;;;26.50;30.00;;;;;;5045192;28;20436;-71
2022/06/16 08:05:11;;;;;;;14.80;10.17;;;26.60;30.40;;;;;;5046922;28;20438;-70
2022/06/16 08:07:37;;;;;;;21.63;10.07;;;26.50;30.70;;;;;;5041478;28;20250;-72
2022/06/16 08:10:05;;;;;;;13.30;10.13;;;26.70;31.70;;;;;;5041481;28;20423;-72
2022/06/16 08:12:31;;;;;;;13.03;9.90;;;26.80;29.50;;;;;;5033251;28;20455;-71
2022/06/16 08:14:57;;;;;;;14.33;9.97;;;27.00;29.80;;;;;;5041326;28;20508;-71
2022/06/16 08:17:31;;;;;;;12.83;8.90;;;27.30;29.00;;;;;;5044003;28;20283;-70
2022/06/16 08:19:58;;;;;;;15.93;9.57;;;27.10;29.50;;;;;;5049868;28;20642;-70
2022/06/16 08:22:25;;;;;;;16.90;10.50;;;26.50;30.00;;;;;;5048015;28;20446;-70
2022/06/16 08:24:51;;;;;;;20.27;10.80;;;26.80;30.00;;;;;;5042594;28;20423;-71
2022/06/16 08:27:20;;;;;;;17.67;11.00;;;27.10;29.30;;;;;;5045109;28;20462;-71
2022/06/16 08:29:47;;;;;;;19.13;10.23;;;26.90;29.40;;;;;;5041342;28;20212;-71
2022/06/16 08:32:16;;;;;;;16.33;10.30;;;27.20;30.90;;;;;;5048558;28;20464;-73
2022/06/16 08:34:42;;;;;;;15.57;9.23;;;27.70;29.10;;;;;;5044041;28;20426;-71
2022/06/16 08:37:08;;;;;;;15.47;9.27;;;27.00;30.40;;;;;;5042681;28;21006;-71
2022/06/16 08:39:34;;;;;;;14.40;8.27;;;26.80;30.60;;;;;;5035136;28;20243;-72
2022/06/16 08:42:18;;;;;;;13.77;8.73;;;26.80;30.60;;;;;;5040876;28;20198;-72
2022/06/16 08:44:47;;;;;;;11.57;8.77;;;26.30;29.90;;;;;;5045759;28;20226;-71
2022/06/16 08:47:18;;;;;;;11.13;9.00;;;26.30;30.20;;;;;;5050670;28;20830;-73
2022/06/16 08:50:04;;;;;;;17.70;8.33;;;26.40;29.70;;;;;;5054982;28;20837;-71
2022/06/16 08:52:37;;;;;;;15.50;9.00;;;26.10;30.60;;;;;;5048368;28;20465;-71
2022/06/16 08:55:19;;;;;;;11.10;8.60;;;26.80;29.90;;;;;;5052807;28;20444;-71
2022/06/16 08:58:13;;;;;;;12.57;7.93;;;27.20;29.90;;;;;;5052481;28;20517;-75
2022/06/16 09:00:52;;;;;;;14.90;8.17;;;27.10;28.30;;;;;;5052488;28;20855;-75
2022/06/16 09:03:17;;;;;;;10.80;8.10;;;27.20;28.20;;;;;;5052220;28;20857;-75
2022/06/16 09:05:52;;;;;;;10.53;7.67;;;26.70;25.50;;;;;;5052118;28;20501;-71
2022/06/16 09:08:18;;;;;;;16.27;7.17;;;26.70;26.10;;;;;;5050699;28;20203;-71
2022/06/16 09:11:13;;;;;;;8.07;6.87;;;27.00;24.70;;;;;;5050346;28;20984;-75
2022/06/16 09:14:03;;;;;;;10.00;6.50;;;27.20;24.50;;;;;;5051872;28;20301;-71
2022/06/16 09:16:38;;;;;;;11.33;8.10;;;27.40;23.80;;;;;;5027864;28;20972;-71
2022/06/16 09:19:38;;;;;;;14.27;8.10;;;27.20;24.00;;;;;;5049434;28;20833;-71
2022/06/16 09:22:08;;;;;;;10.10;7.17;;;27.10;23.90;;;;;;4951717;29;20530;-72
2022/06/16 09:25:00;;;;;;;16.23;7.53;;;27.70;24.30;;;;;;4951849;29;20415;-71
2022/06/16 09:27:37;;;;;;;10.70;7.57;;;27.50;23.60;;;;;;4951661;29;20434;-74
2022/06/16 09:30:10;;;;;;;9.70;7.83;;;27.10;24.50;;;;;;4952051;29;20431;-71
2022/06/16 09:32:40;;;;;;;11.23;7.80;;;27.40;24.10;;;;;;4950564;28;20546;-74
2022/06/16 09:35:10;;;;;;;9.70;7.53;;;27.40;24.20;;;;;;4951788;29;20423;-71
2022/06/16 09:37:58;;;;;;;17.73;7.97;;;28.20;25.70;;;;;;4951381;29;20463;-71
2022/06/16 09:40:28;;;;;;;10.40;7.80;;;28.10;23.60;;;;;;4968568;28;20921;-71
2022/06/16 09:43:10;;;;;;;16.57;7.47;;;28.10;24.20;;;;;;4970628;28;20793;-71
2022/06/16 09:45:42;;;;;;;17.17;8.40;;;28.40;24.00;;;;;;4970962;28;20461;-71
2022/06/16 09:48:15;;;;;;;9.20;6.80;;;29.00;23.50;;;;;;4954495;28;20855;-71
2022/06/16 09:50:57;;;;;;;7.50;6.80;;;28.20;22.00;;;;;;4970557;28;20480;-71
2022/06/16 09:53:32;;;;;;;13.37;7.50;;;28.30;21.50;;;;;;4970480;28;20425;-71
2022/06/16 09:56:17;;;;;;;12.77;8.07;;;28.50;21.30;;;;;;4999282;28;20454;-71
2022/06/16 09:58:50;;;;;;;10.53;7.37;;;28.00;22.30;;;;;;5031482;28;20434;-71
2022/06/16 10:01:19;;;;;;;18.03;7.23;;;27.80;22.40;;;;;;5044920;28;20433;-71
2022/06/16 10:03:57;;;;;;;15.90;8.07;;;27.90;22.70;;;;;;5051448;28;20905;-72
2022/06/16 10:06:42;;;;;;;11.10;7.80;;;27.80;23.50;;;;;;5051780;28;20948;-71
2022/06/16 10:09:18;;;;;;;13.57;7.10;;;27.70;21.80;;;;;;5046236;28;20948;-71
2022/06/16 10:11:59;;;;;;;29.33;8.00;;;28.10;22.90;;;;;;5055803;28;20464;-73
2022/06/16 10:14:44;;;;;;;12.30;6.83;;;27.90;22.30;;;;;;5041865;28;20498;-70
2022/06/16 10:17:13;;;;;;;12.70;7.30;;;27.70;22.60;;;;;;5049031;28;20472;-72
2022/06/16 10:19:44;;;;;;;8.57;7.30;;;28.10;22.30;;;;;;5048633;28;20420;-74
2022/06/16 10:22:13;;;;;;;17.20;8.07;;;28.50;22.30;;;;;;5040242;28;20956;-75
2022/06/16 10:24:44;;;;;;;16.60;7.43;;;28.00;20.90;;;;;;5039401;28;20436;-77
2022/06/16 10:27:14;;;;;;;11.60;7.30;;;28.30;21.60;;;;;;5040555;28;20535;-76
2022/06/16 10:29:54;;;;;;;11.63;7.33;;;28.40;22.20;;;;;;5043620;28;20489;-75
2022/06/16 10:32:35;;;;;;;12.33;7.57;;;29.00;21.60;;;;;;5043086;28;20461;-75
2022/06/16 10:35:01;;;;;;;9.77;6.97;;;29.00;20.40;;;;;;5039048;28;20400;-75
2022/06/16 10:37:30;;;;;;;18.10;7.87;;;29.60;20.60;;;;;;5044995;28;20563;-73
2022/06/16 10:40:05;;;;;;;10.90;6.50;;;29.90;20.30;;;;;;5043487;28;20457;-74
2022/06/16 10:42:31;;;;;;;15.00;6.63;;;30.10;18.90;;;;;;5041531;28;20433;-74
2022/06/16 10:45:07;;;;;;;10.17;6.93;;;29.50;19.50;;;;;;5036928;28;20426;-74
2022/06/16 10:48:05;;;;;;;12.70;7.13;;;28.90;20.50;;;;;;5017580;28;20437;-74
2022/06/16 10:50:37;;;;;;;12.03;7.07;;;29.60;19.90;;;;;;4990428;28;20556;-74
2022/06/16 10:53:07;;;;;;;18.33;7.10;;;28.90;20.50;;;;;;4993330;28;20412;-74
2022/06/16 10:55:42;;;;;;;14.20;7.13;;;29.00;20.90;;;;;;4992994;28;20519;-75
2022/06/16 10:58:23;;;;;;;23.27;7.40;;;30.00;21.80;;;;;;4993328;28;20444;-74
2022/06/16 11:01:04;;;;;;;19.80;6.33;;;30.60;19.70;;;;;;4993268;28;20966;-75
2022/06/16 11:03:35;;;;;;;14.77;6.37;;;29.90;17.70;;;;;;4992490;28;20448;-75
2022/06/16 11:06:01;;;;;;;8.87;6.50;;;29.10;19.30;;;;;;4992896;28;20437;-74
2022/06/16 11:08:39;;;;;;;11.20;6.50;;;29.50;19.20;;;;;;4992756;28;20448;-75
2022/06/16 11:11:05;;;;;;;16.90;6.97;;;30.50;19.60;;;;;;4990592;28;20698;-75
2022/06/16 11:13:43;;;;;;;11.20;6.60;;;30.20;17.70;;;;;;4993138;28;20441;-74
2022/06/16 11:16:12;;;;;;;8.43;6.50;;;29.30;19.50;;;;;;4991063;28;20524;-73
2022/06/16 11:18:38;;;;;;;13.37;7.20;;;30.10;19.90;;;;;;4988619;28;20551;-73
2022/06/16 11:21:22;;;;;;;9.77;6.83;;;29.90;18.20;;;;;;4991786;28;20444;-75
2022/06/16 11:23:54;;;;;;;10.10;7.07;;;29.20;18.30;;;;;;4990814;28;20487;-76
2022/06/16 11:26:32;;;;;;;13.30;6.53;;;29.20;19.20;;;;;;5007498;28;20915;-73
2022/06/16 11:29:21;;;;;;;17.70;6.07;;;30.50;18.80;;;;;;5045349;28;20536;-74
2022/06/16 11:32:02;;;;;;;13.03;6.07;;;31.10;18.40;;;;;;5043214;28;20475;-79
2022/06/16 11:34:28;;;;;;;16.33;6.93;;;31.80;18.10;;;;;;5041795;28;20431;-73
2022/06/16 11:37:26;;;;;;;8.17;5.57;;;32.00;17.00;;;;;;5053628;28;20436;-72
2022/06/16 11:40:04;;;;;;;10.73;6.03;;;33.90;16.00;;;;;;5049449;28;20217;-77
2022/06/16 11:42:44;;;;;;;15.37;6.00;;;33.00;13.90;;;;;;5041848;28;20795;-76
2022/06/16 11:45:29;;;;;;;16.80;5.97;;;33.00;15.40;;;;;;5035087;28;20528;-77
2022/06/16 11:48:36;;;;;;;6.83;5.57;;;33.70;15.20;;;;;;5048339;28;20486;-75
2022/06/16 11:51:36;;;;;;;9.03;5.30;;;33.20;14.10;;;;;;4958447;28;20561;-75
2022/06/16 11:54:26;;;;;;;8.60;5.70;;;32.10;14.10;;;;;;5039719;28;20469;-77
2022/06/16 11:56:56;;;;;;;10.80;5.50;;;31.20;15.10;;;;;;5050824;28;20429;-76
2022/06/16 11:59:50;;;;;;;15.27;6.20;;;31.20;15.40;;;;;;5046148;28;20430;-74
2022/06/16 12:02:47;;;;;;;9.60;6.00;;;32.50;13.20;;;;;;5042912;28;20435;-77
2022/06/16 12:05:13;;;;;;;9.60;6.07;;;;;;;;;;5047203;28;20456;-76
2022/06/16 12:07:48;;;;;;;9.20;5.90;;;32.60;15.60;;;;;;5042362;28;20477;-74
2022/06/16 12:10:17;;;;;;;8.77;5.90;;;32.10;14.50;;;;;;5052663;28;20425;-72
2022/06/16 12:15:19;;;;;;;8.90;6.27;;;32.10;14.50;;;;;;5064222;28;20468;-70
2022/06/16 12:17:51;;;;;;;14.20;6.10;;;32.70;15.20;;;;;;5063078;28;20453;-70
2022/06/16 12:20:42;;;;;;;7.97;6.00;;;31.70;15.90;;;;;;5052948;28;20395;-71
2022/06/16 12:23:11;;;;;;;11.30;6.60;;;31.40;17.10;;;;;;5063969;28;20806;-71
2022/06/16 12:26:00;;;;;;;12.40;6.20;;;31.60;16.40;;;;;;5068078;28;20429;-71
2022/06/16 12:28:53;;;;;;;10.60;6.93;;;31.50;15.50;;;;;;5062669;28;20806;-73
2022/06/16 12:31:26;;;;;;;11.57;6.30;;;31.40;16.30;;;;;;5059950;28;20873;-72
2022/06/16 12:34:05;;;;;;;14.90;6.23;;;32.00;15.60;;;;;;5064768;28;20445;-72
2022/06/16 12:36:37;;;;;;;9.03;5.87;;;31.50;16.00;;;;;;5064915;28;20417;-72
2022/06/16 12:39:09;;;;;;;8.37;5.80;;;31.20;19.20;;;;;;5063836;28;20417;-71
2022/06/16 12:41:45;;;;;;;9.77;5.57;;;32.00;14.70;;;;;;5059382;28;20753;-71
2022/06/16 12:44:18;;;;;;;11.87;5.43;;;32.00;16.30;;;;;;5065178;28;20990;-72
2022/06/16 12:47:06;;;;;;;15.50;5.80;;;32.30;13.20;;;;;;5057851;28;20495;-72
2022/06/16 12:49:47;;;;;;;14.73;5.60;;;32.90;12.80;;;;;;5056275;28;20438;-72
2022/06/16 12:52:25;;;;;;;12.17;5.83;;;32.90;13.80;;;;;;5052315;28;20454;-72
2022/06/16 12:55:10;;;;;;;13.97;5.70;;;32.00;13.50;;;;;;5052266;28;20429;-72
2022/06/16 12:57:44;;;;;;;11.33;5.07;;;31.90;12.90;;;;;;5062257;28;20417;-71
2022/06/16 13:00:16;;;;;;;7.93;5.40;;;32.50;14.30;;;;;;5072374;28;20393;-71
2022/06/16 13:02:56;;;;;;;13.03;5.40;;;33.50;12.30;;;;;;5071955;28;20468;-72
2022/06/16 13:05:22;;;;;;;9.17;5.33;;;34.00;11.30;;;;;;5072385;28;20854;-71
2022/06/16 13:07:52;;;;;;;12.60;5.90;;;32.40;12.70;;;;;;5071523;28;20453;-72
2022/06/16 13:10:18;;;;;;;7.90;5.37;;;31.60;13.40;;;;;;5072187;28;20171;-71
2022/06/16 13:12:53;;;;;;;12.53;5.23;;;31.40;15.00;;;;;;5071746;28;20445;-71
2022/06/16 13:15:23;;;;;;;15.73;5.07;;;31.80;13.10;;;;;;5071542;28;20392;-71
2022/06/16 13:17:54;;;;;;;9.13;5.80;;;31.40;13.50;;;;;;5071701;28;20797;-72
2022/06/16 13:20:26;;;;;;;12.90;5.80;;;31.10;14.70;;;;;;5065913;28;20417;-71
2022/06/16 13:23:15;;;;;;;9.40;5.30;;;31.30;14.00;;;;;;5071722;28;20408;-71